createdAt,value
2018-06-09T00:00:22.431Z,130.33
2018-06-09T00:03:00.558Z,118.80
2018-06-09T00:05:34.148Z,132.70
2018-06-09T00:08:04.892Z,114.20
2018-06-09T00:10:34.839Z,127.10
2018-06-09T00:13:04.479Z,119.90
2018-06-09T00:15:34.613Z,117.17
2018-06-09T00:18:04.410Z,125.37
2018-06-09T00:20:34.379Z,125.27
2018-06-09T00:23:04.508Z,142.33
2018-06-09T00:25:34.723Z,132.43
2018-06-09T00:28:04.296Z,125.40
2018-06-09T00:30:34.182Z,130.27
2018-06-09T00:33:03.613Z,135.80
2018-06-09T00:35:43.005Z,131.37
2018-06-09T00:38:12.685Z,135.97
2018-06-09T00:40:42.481Z,163.43
2018-06-09T00:43:11.926Z,144.00
2018-06-09T00:45:42.601Z,159.13
2018-06-09T00:48:12.594Z,144.70
2018-06-09T00:50:42.297Z,144.67
2018-06-09T00:53:13.693Z,144.63
2018-06-09T00:55:43.350Z,163.80
2018-06-09T00:58:12.931Z,201.83
2018-06-09T01:00:43.366Z,137.70
2018-06-09T01:03:14.128Z,144.60
2018-06-09T01:05:43.841Z,137.70
2018-06-09T01:08:17.767Z,140.30
2018-06-09T01:10:55.181Z,141.87
2018-06-09T01:13:29.312Z,132.60
2018-06-09T01:15:59.272Z,141.47
2018-06-09T01:18:29.226Z,147.20
2018-06-09T01:21:01.320Z,146.20
2018-06-09T01:23:37.380Z,144.40
2018-06-09T01:26:12.515Z,153.03
2018-06-09T01:28:48.952Z,152.60
2018-06-09T01:31:27.774Z,152.20
2018-06-09T01:34:00.929Z,149.77
2018-06-09T01:36:31.353Z,151.43
2018-06-09T01:39:04.350Z,165.90
2018-06-09T01:41:35.710Z,151.73
2018-06-09T01:44:06.771Z,150.57
2018-06-09T01:46:39.704Z,148.13
2018-06-09T01:49:09.960Z,148.10
2018-06-09T01:51:40.683Z,148.20
2018-06-09T01:54:13.075Z,155.00
2018-06-09T01:56:43.611Z,156.80
2018-06-09T01:59:13.556Z,159.57
2018-06-09T02:01:45.056Z,153.00
2018-06-09T02:04:14.771Z,156.23
2018-06-09T02:06:44.087Z,158.67
2018-06-09T02:09:14.129Z,166.60
2018-06-09T02:11:43.927Z,160.10
2018-06-09T02:14:13.646Z,164.03
2018-06-09T02:16:43.200Z,162.90
2018-06-09T02:19:13.906Z,170.73
2018-06-09T02:21:44.509Z,165.60
2018-06-09T02:24:23.661Z,164.50
2018-06-09T02:26:54.004Z,156.97
2018-06-09T02:29:31.161Z,157.93
2018-06-09T02:32:06.131Z,154.70
2018-06-09T02:34:35.944Z,150.57
2018-06-09T02:37:06.042Z,155.47
2018-06-09T02:39:35.502Z,162.20
2018-06-09T02:42:05.885Z,154.90
2018-06-09T02:44:35.081Z,146.37
2018-06-09T02:47:04.964Z,156.87
2018-06-09T02:49:37.227Z,156.67
2018-06-09T02:52:08.287Z,152.67
2018-06-09T02:54:39.029Z,153.10
2018-06-09T02:57:13.890Z,152.97
2018-06-09T02:59:43.216Z,150.07
2018-06-09T03:02:12.622Z,148.13
2018-06-09T03:04:42.291Z,151.10
2018-06-09T03:07:11.681Z,147.20
2018-06-09T03:09:40.890Z,149.33
2018-06-09T03:12:10.771Z,148.00
2018-06-09T03:14:40.397Z,138.43
2018-06-09T03:21:46.423Z,134.07
2018-06-09T03:24:22.292Z,132.87
2018-06-09T03:26:51.068Z,133.40
2018-06-09T03:29:20.313Z,134.13
2018-06-09T03:31:52.394Z,126.23
2018-06-09T03:34:21.687Z,125.23
2018-06-09T03:36:55.380Z,115.53
2018-06-09T03:39:40.525Z,114.87
2018-06-09T03:42:12.740Z,116.80
2018-06-09T03:44:44.173Z,110.80
2018-06-09T03:47:15.116Z,107.77
2018-06-09T03:49:45.546Z,108.07
2018-06-09T03:52:21.213Z,107.37
2018-06-09T03:54:51.001Z,103.50
2018-06-09T03:57:25.459Z,102.93
2018-06-09T04:00:00.448Z,102.17
2018-06-09T04:02:29.888Z,106.77
2018-06-09T04:04:59.263Z,107.57
2018-06-09T04:07:28.242Z,104.40
2018-06-09T04:09:57.856Z,110.47
2018-06-09T04:12:29.873Z,105.90
2018-06-09T04:15:00.106Z,112.87
2018-06-09T04:17:31.892Z,109.47
2018-06-09T04:20:01.006Z,111.30
2018-06-09T04:22:30.275Z,113.20
2018-06-09T04:24:59.764Z,117.70
2018-06-09T04:27:30.132Z,122.80
2018-06-09T04:30:00.246Z,119.53
2018-06-09T04:32:29.368Z,119.70
2018-06-09T04:35:00.370Z,124.37
2018-06-09T04:37:30.378Z,123.30
2018-06-09T04:40:00.594Z,116.27
2018-06-09T04:42:30.239Z,121.70
2018-06-09T04:45:12.872Z,114.63
2018-06-09T04:47:43.256Z,122.93
2018-06-09T04:50:12.907Z,128.47
2018-06-09T04:52:42.262Z,132.13
2018-06-09T04:55:11.788Z,129.23
2018-06-09T04:57:43.236Z,129.73
2018-06-09T05:00:12.302Z,127.70
2018-06-09T05:02:42.142Z,134.50
2018-06-09T05:05:11.440Z,134.00
2018-06-09T05:07:40.798Z,136.27
2018-06-09T05:10:09.851Z,146.43
2018-06-09T05:12:39.088Z,154.57
2018-06-09T05:15:08.164Z,149.43
2018-06-09T05:17:37.348Z,153.23
2018-06-09T05:20:07.130Z,156.80
2018-06-09T05:22:36.562Z,148.30
2018-06-09T05:25:06.107Z,163.70
2018-06-09T05:27:36.551Z,159.40
2018-06-09T05:30:05.964Z,161.13
2018-06-09T05:32:35.451Z,163.73
2018-06-09T05:35:04.749Z,163.07
2018-06-09T05:37:33.885Z,157.90
2018-06-09T05:40:03.755Z,157.17
2018-06-09T05:42:33.122Z,158.97
2018-06-09T05:45:02.566Z,148.33
2018-06-09T05:47:32.028Z,149.17
2018-06-09T05:50:01.516Z,147.50
2018-06-09T05:52:32.305Z,140.77
2018-06-09T05:55:08.502Z,131.47
2018-06-09T05:57:37.973Z,132.77
2018-06-09T06:00:07.684Z,127.93
2018-06-09T06:02:37.145Z,117.00
2018-06-09T06:05:06.889Z,118.87
2018-06-09T06:07:36.204Z,109.23
2018-06-09T06:10:05.495Z,106.73
2018-06-09T06:12:35.286Z,93.50
2018-06-09T06:15:04.559Z,85.27
2018-06-09T06:17:33.628Z,81.47
2018-06-09T06:20:02.906Z,84.43
2018-06-09T06:22:32.258Z,83.17
2018-06-09T06:25:03.080Z,86.90
2018-06-09T06:27:33.561Z,91.27
2018-06-09T06:30:03.085Z,88.83
2018-06-09T06:32:32.411Z,91.60
2018-06-09T06:35:01.458Z,90.97
2018-06-09T06:37:30.818Z,91.90
2018-06-09T06:40:01.021Z,90.33
2018-06-09T06:42:30.526Z,90.87
2018-06-09T06:45:01.389Z,92.83
2018-06-09T06:47:30.480Z,102.00
2018-06-09T06:49:59.920Z,104.00
2018-06-09T06:52:31.372Z,107.33
2018-06-09T06:55:00.688Z,116.73
2018-06-09T06:57:30.343Z,113.17
2018-06-09T07:00:00.753Z,117.07
2018-06-09T07:02:37.225Z,118.57
2018-06-09T07:05:07.961Z,117.17
2018-06-09T07:07:39.931Z,117.47
2018-06-09T07:10:09.077Z,118.20
2018-06-09T07:12:40.929Z,116.23
2018-06-09T07:15:10.088Z,116.07
2018-06-09T07:17:39.295Z,118.80
2018-06-09T07:20:14.083Z,111.97
2018-06-09T07:22:49.589Z,115.83
2018-06-09T07:25:19.866Z,113.67
2018-06-09T07:27:54.871Z,108.33
2018-06-09T07:30:25.154Z,115.53
2018-06-09T07:32:56.688Z,116.07
2018-06-09T07:35:26.741Z,117.40
2018-06-09T07:37:56.619Z,116.80
2018-06-09T07:40:26.467Z,111.13
2018-06-09T07:43:01.024Z,106.20
2018-06-09T07:45:32.159Z,107.03
2018-06-09T07:48:32.525Z,103.33
2018-06-09T07:51:07.864Z,95.70
2018-06-09T07:53:37.610Z,101.83
2018-06-09T07:56:07.730Z,97.17
2018-06-09T07:58:38.705Z,94.47
2018-06-09T08:01:09.979Z,110.47
2018-06-09T08:03:42.467Z,108.60
2018-06-09T08:06:11.886Z,107.43
2018-06-09T08:08:43.929Z,106.37
2018-06-09T08:12:01.091Z,106.20
2018-06-09T08:14:30.991Z,106.67
2018-06-09T08:17:00.422Z,97.10
2018-06-09T08:19:33.706Z,97.87
2018-06-09T08:22:04.433Z,93.77
2018-06-09T08:24:34.282Z,85.10
2018-06-09T08:27:03.466Z,85.87
2018-06-09T08:29:33.318Z,84.10
2018-06-09T08:32:03.034Z,78.10
2018-06-09T08:34:33.399Z,71.87
2018-06-09T08:37:02.624Z,74.27
2018-06-09T08:39:32.598Z,71.00
2018-06-09T08:42:02.506Z,74.40
2018-06-09T08:44:32.112Z,66.73
2018-06-09T08:47:03.344Z,64.00
2018-06-09T08:49:32.531Z,62.93
2018-06-09T08:52:01.817Z,60.67
2018-06-09T08:54:32.152Z,63.17
2018-06-09T08:57:02.888Z,63.47
2018-06-09T08:59:32.375Z,63.17
2018-06-09T09:02:04.512Z,62.53
2018-06-09T09:04:34.163Z,63.40
2018-06-09T09:07:03.771Z,63.63
2018-06-09T09:09:37.485Z,64.00
2018-06-09T09:12:07.597Z,64.20
2018-06-09T09:14:36.861Z,63.17
2018-06-09T09:17:06.810Z,62.10
2018-06-09T09:19:37.334Z,61.00
2018-06-09T09:22:08.216Z,62.40
2018-06-09T09:24:39.552Z,56.87
2018-06-09T09:27:10.721Z,56.40
2018-06-09T09:29:40.998Z,57.30
2018-06-09T09:32:19.973Z,53.20
2018-06-09T09:34:49.551Z,52.50
2018-06-09T09:37:19.695Z,57.67
2018-06-09T09:40:15.531Z,56.27
2018-06-09T09:42:46.771Z,53.23
2018-06-09T09:45:17.438Z,51.80
2018-06-09T09:47:47.412Z,46.60
2018-06-09T09:50:21.451Z,48.67
2018-06-09T09:52:56.759Z,47.70
2018-06-09T09:55:31.602Z,45.27
2018-06-09T09:58:20.658Z,47.70
2018-06-09T10:00:54.582Z,46.50
2018-06-09T10:03:32.963Z,46.63
2018-06-09T10:06:25.413Z,45.30
2018-06-09T10:09:10.493Z,41.23
2018-06-09T10:11:40.651Z,38.77
2018-06-09T10:14:10.783Z,40.13
2018-06-09T10:16:41.181Z,33.73
2018-06-09T10:19:12.635Z,37.57
2018-06-09T10:21:43.484Z,27.37
2018-06-09T10:24:16.864Z,28.37
2018-06-09T10:26:48.488Z,30.70
2018-06-09T10:29:18.959Z,29.20
2018-06-09T10:31:51.075Z,28.77
2018-06-09T10:34:21.452Z,28.27
2018-06-09T10:36:52.185Z,29.27
2018-06-09T10:39:22.270Z,25.20
2018-06-09T10:41:52.222Z,25.57
2018-06-09T10:44:21.822Z,27.40
2018-06-09T10:46:52.707Z,25.50
2018-06-09T10:49:22.948Z,28.77
2018-06-09T10:51:53.189Z,26.37
2018-06-09T10:54:23.245Z,23.20
2018-06-09T10:56:57.385Z,26.40
2018-06-09T10:59:27.392Z,26.00
2018-06-09T11:01:56.583Z,24.77
2018-06-09T11:09:03.663Z,23.00
2018-06-09T11:11:33.166Z,27.73
2018-06-09T11:15:07.046Z,26.40
2018-06-09T11:17:37.516Z,26.37
2018-06-09T11:20:09.379Z,25.20
2018-06-09T11:22:42.133Z,26.40
2018-06-09T11:25:11.861Z,25.30
2018-06-09T11:27:41.903Z,23.53
2018-06-09T11:30:11.823Z,23.77
2018-06-09T11:32:41.525Z,25.97
2018-06-09T11:35:14.061Z,26.33
2018-06-09T11:37:47.005Z,23.50
2018-06-09T11:40:29.569Z,22.77
2018-06-09T11:43:07.405Z,24.03
2018-06-09T11:45:38.606Z,26.93
2018-06-09T11:48:09.816Z,23.60
2018-06-09T11:50:50.317Z,25.87
2018-06-09T11:53:20.906Z,25.47
2018-06-09T11:55:52.474Z,26.57
2018-06-09T11:58:31.440Z,23.70
2018-06-09T12:01:01.567Z,24.30
2018-06-09T12:03:30.731Z,26.00
2018-06-09T12:06:22.744Z,20.83
2018-06-09T12:09:13.662Z,17.43
2018-06-09T12:11:44.793Z,29.10
2018-06-09T12:14:16.498Z,20.60
2018-06-09T12:16:54.905Z,20.53
2018-06-09T12:19:28.876Z,22.60
2018-06-09T12:22:06.911Z,22.43
2018-06-09T12:27:47.187Z,18.83
2018-06-09T12:30:21.677Z,18.30
2018-06-09T12:32:52.927Z,18.63
2018-06-09T12:35:30.571Z,22.60
2018-06-09T12:38:01.573Z,20.80
2018-06-09T12:40:33.304Z,20.50
2018-06-09T12:43:04.718Z,19.90
2018-06-09T12:45:41.618Z,20.10
2018-06-09T12:48:24.536Z,21.80
2018-06-09T12:50:55.124Z,24.40
2018-06-09T12:53:28.351Z,23.90
2018-06-09T12:56:00.722Z,22.37
2018-06-09T12:58:32.703Z,22.37
2018-06-09T13:01:08.814Z,24.97
2018-06-09T13:03:38.466Z,23.80
2018-06-09T13:06:14.820Z,24.60
2018-06-09T13:08:44.714Z,27.60
2018-06-09T13:11:15.257Z,27.70
2018-06-09T13:13:48.819Z,27.97
2018-06-09T13:16:40.550Z,26.23
2018-06-09T13:19:13.840Z,24.47
2018-06-09T13:21:48.056Z,26.27
2018-06-09T13:24:18.611Z,26.07
2018-06-09T13:26:50.513Z,25.00
2018-06-09T13:29:21.360Z,31.60
2018-06-09T13:31:55.303Z,33.93
2018-06-09T13:34:25.929Z,32.33
2018-06-09T13:36:58.346Z,31.93
2018-06-09T13:39:28.906Z,29.97
2018-06-09T13:41:59.014Z,32.00
2018-06-09T13:44:29.386Z,32.80
2018-06-09T13:46:59.094Z,33.57
2018-06-09T13:49:30.399Z,31.83
2018-06-09T13:52:00.367Z,34.00
2018-06-09T13:54:30.940Z,31.40
2018-06-09T13:57:00.479Z,35.30
2018-06-09T13:59:35.464Z,35.30
2018-06-09T14:02:05.076Z,31.80
2018-06-09T14:04:47.625Z,31.70
2018-06-09T14:07:20.380Z,31.67
2018-06-09T14:09:54.114Z,30.43
2018-06-09T14:12:26.032Z,30.30
2018-06-09T14:14:55.953Z,30.43
2018-06-09T14:17:25.583Z,30.27
2018-06-09T14:19:56.764Z,35.63
2018-06-09T14:22:27.905Z,35.57
2018-06-09T14:24:59.468Z,35.13
2018-06-09T14:27:28.903Z,37.83
2018-06-09T14:30:03.071Z,36.10
2018-06-09T14:32:32.898Z,32.17
2018-06-09T14:35:03.174Z,39.63
2018-06-09T14:37:34.754Z,35.50
2018-06-09T14:40:06.837Z,35.30
2018-06-09T14:42:37.474Z,36.33
2018-06-09T14:45:07.542Z,38.60
2018-06-09T14:47:37.099Z,37.03
2018-06-09T14:54:52.525Z,36.93
2018-06-09T14:57:26.912Z,35.20
2018-06-09T14:59:56.207Z,34.50
2018-06-09T15:02:26.961Z,35.07
2018-06-09T15:04:56.330Z,33.33
2018-06-09T15:07:27.183Z,36.30
2018-06-09T15:12:36.961Z,31.50
2018-06-09T15:15:27.201Z,33.87
2018-06-09T15:18:09.659Z,35.67
2018-06-09T15:20:39.360Z,35.63
2018-06-09T15:23:09.370Z,37.37
2018-06-09T15:25:39.038Z,40.67
2018-06-09T15:28:09.116Z,35.13
2018-06-09T15:30:44.511Z,38.33
2018-06-09T15:33:14.991Z,35.60
2018-06-09T15:36:02.747Z,33.60
2018-06-09T15:38:35.262Z,34.67
2018-06-09T15:41:09.576Z,33.97
2018-06-09T15:43:42.439Z,31.73
2018-06-09T15:46:28.675Z,33.53
2018-06-09T15:49:00.978Z,34.73
2018-06-09T15:51:43.627Z,34.83
2018-06-09T15:54:15.549Z,31.13
2018-06-09T15:56:54.745Z,32.30
2018-06-09T15:59:37.106Z,34.33
2018-06-09T16:02:15.250Z,30.57
2018-06-09T16:05:02.935Z,31.67
2018-06-09T16:07:41.008Z,30.20
2018-06-09T16:10:25.106Z,31.90
2018-06-09T16:15:51.372Z,31.00
2018-06-09T16:18:52.909Z,27.93
2018-06-09T16:21:26.681Z,27.97
2018-06-09T16:24:11.101Z,27.97
2018-06-09T16:26:42.254Z,28.70
2018-06-09T16:29:17.424Z,29.80
2018-06-09T16:31:52.289Z,29.90
2018-06-09T16:34:23.602Z,31.03
2018-06-09T16:36:58.378Z,29.23
2018-06-09T16:39:40.267Z,29.10
2018-06-09T16:42:19.852Z,31.40
2018-06-09T16:45:21.589Z,30.33
2018-06-09T16:48:26.478Z,29.17
2018-06-09T16:51:21.714Z,24.87
2018-06-09T16:54:22.493Z,25.60
2018-06-09T16:56:53.927Z,27.50
2018-06-09T16:59:50.695Z,26.10
2018-06-09T17:02:36.315Z,25.23
2018-06-09T17:05:12.389Z,26.60
2018-06-09T17:08:04.151Z,26.17
2018-06-09T17:13:55.807Z,24.43
2018-06-09T17:16:37.869Z,26.00
2018-06-09T17:19:09.967Z,23.13
2018-06-09T17:21:53.013Z,25.57
2018-06-09T17:24:23.676Z,24.20
2018-06-09T17:26:54.398Z,26.27
2018-06-09T17:29:24.278Z,24.00
2018-06-09T17:31:54.490Z,29.30
2018-06-09T17:34:49.180Z,26.60
2018-06-09T17:37:28.740Z,27.60
2018-06-09T17:39:58.767Z,27.00
2018-06-09T17:42:49.072Z,26.70
2018-06-09T17:45:21.621Z,27.07
2018-06-09T17:48:02.336Z,26.83
2018-06-09T17:56:40.318Z,26.17
2018-06-09T17:59:12.131Z,28.93
2018-06-09T18:01:42.439Z,32.33
2018-06-09T18:04:13.944Z,29.60
2018-06-09T18:06:48.871Z,34.87
2018-06-09T18:09:34.462Z,28.27
2018-06-09T18:12:04.782Z,33.33
2018-06-09T18:14:46.836Z,28.27
2018-06-09T18:20:07.137Z,28.87
2018-06-09T18:22:39.203Z,30.10
2018-06-09T18:31:08.833Z,32.30
2018-06-09T18:33:44.801Z,26.47
2018-06-09T18:36:19.684Z,31.50
2018-06-09T18:38:55.045Z,40.80
2018-06-09T18:41:25.937Z,37.60
2018-06-09T18:43:56.200Z,54.90
2018-06-09T18:46:27.221Z,34.77
2018-06-09T18:48:57.300Z,32.63
2018-06-09T18:51:31.197Z,65.20
2018-06-09T18:54:19.474Z,32.07
2018-06-09T19:00:19.391Z,32.10
2018-06-09T19:03:16.387Z,40.78
2018-06-09T19:06:01.321Z,32.50
2018-06-09T19:08:57.188Z,30.20
2018-06-09T19:14:36.279Z,39.50
2018-06-09T19:17:10.709Z,37.67
2018-06-09T19:19:45.889Z,45.20
2018-06-09T19:22:24.798Z,36.70
2018-06-09T19:25:30.880Z,36.23
2018-06-09T19:31:18.606Z,32.07
2018-06-09T19:33:56.872Z,31.23
2018-06-09T19:36:42.121Z,31.97
2018-06-09T19:39:22.959Z,33.80
2018-06-09T19:42:01.882Z,44.70
2018-06-09T19:44:40.744Z,57.00
2018-06-09T19:47:42.164Z,54.00
2018-06-09T19:50:24.219Z,39.57
2018-06-09T19:52:55.904Z,30.87
2018-06-09T19:55:33.400Z,54.33
2018-06-09T19:58:40.132Z,44.67
2018-06-09T20:01:43.291Z,51.40
2018-06-09T20:04:54.467Z,34.00
2018-06-09T20:07:32.926Z,48.53
2018-06-09T20:10:04.094Z,41.40
2018-06-09T20:12:34.218Z,45.40
2018-06-09T20:15:07.513Z,90.43
2018-06-09T20:17:49.509Z,41.67
2018-06-09T20:20:20.447Z,43.70
2018-06-09T20:22:53.231Z,40.73
2018-06-09T20:25:56.383Z,36.67
2018-06-09T20:28:46.126Z,43.07
2018-06-09T20:32:22.247Z,49.63
2018-06-09T20:34:56.316Z,43.27
2018-06-09T20:37:53.466Z,42.60
2018-06-09T20:40:28.368Z,37.97
2018-06-09T20:43:01.503Z,34.87
2018-06-09T20:45:45.239Z,36.23
2018-06-09T20:48:23.550Z,32.80
2018-06-09T20:51:00.357Z,41.67
2018-06-09T20:53:31.193Z,38.10
2018-06-09T20:56:24.741Z,37.37
2018-06-09T20:58:58.617Z,40.00
2018-06-09T21:01:59.650Z,35.50
2018-06-09T21:04:35.070Z,58.73
2018-06-09T21:07:21.781Z,71.87
2018-06-09T21:12:44.603Z,41.30
2018-06-09T21:15:18.593Z,71.50
2018-06-09T21:17:55.052Z,59.17
2018-06-09T21:20:28.546Z,59.37
2018-06-09T21:23:00.152Z,44.70
2018-06-09T21:25:39.369Z,55.53
2018-06-09T21:28:14.914Z,84.83
2018-06-09T21:30:55.949Z,68.83
2018-06-09T21:35:47.450Z,57.70
2018-06-09T21:38:23.980Z,43.57
2018-06-09T21:41:12.083Z,43.90
2018-06-09T21:44:30.718Z,41.10
2018-06-09T21:47:04.132Z,50.20
2018-06-09T21:50:17.957Z,75.77
2018-06-09T21:53:09.672Z,45.00
2018-06-09T21:55:44.195Z,78.33
2018-06-09T21:58:22.682Z,55.43
2018-06-09T22:04:06.004Z,50.33
2018-06-09T22:06:45.726Z,61.80
2018-06-09T22:09:24.804Z,53.10
2018-06-09T22:11:55.427Z,51.93
2018-06-09T22:17:08.419Z,56.03
2018-06-09T22:19:55.129Z,48.57
2018-06-09T22:22:24.894Z,116.23
2018-06-09T22:25:15.457Z,50.90
2018-06-09T22:28:04.679Z,48.00
2018-06-09T22:30:34.739Z,43.73
2018-06-09T22:33:17.564Z,52.37
2018-06-09T22:35:59.261Z,42.20
2018-06-09T22:38:48.249Z,49.70
2018-06-09T22:41:22.611Z,60.73
2018-06-09T22:44:09.531Z,40.77
2018-06-09T22:46:52.250Z,58.63
2018-06-09T22:49:34.178Z,45.13
2018-06-09T22:52:21.984Z,120.73
2018-06-09T22:54:51.743Z,84.47
2018-06-09T22:57:32.908Z,69.83
2018-06-09T23:00:21.542Z,45.50
2018-06-09T23:03:12.438Z,39.77
2018-06-09T23:06:01.815Z,75.40
2018-06-09T23:08:32.554Z,44.43
2018-06-09T23:11:08.301Z,65.53
2018-06-09T23:13:38.116Z,79.17
2018-06-09T23:16:11.969Z,42.10
2018-06-09T23:18:41.865Z,38.10
2018-06-09T23:21:12.853Z,43.47
2018-06-09T23:23:42.954Z,40.17
2018-06-09T23:26:22.854Z,35.53
2018-06-09T23:28:57.477Z,44.30
2018-06-09T23:31:31.256Z,114.73
2018-06-09T23:34:01.120Z,77.43
2018-06-09T23:36:30.923Z,50.10
2018-06-09T23:39:01.882Z,47.63
2018-06-09T23:41:31.580Z,54.50
2018-06-09T23:44:01.718Z,64.27
2018-06-09T23:46:32.987Z,66.73
2018-06-09T23:49:03.044Z,69.20
2018-06-09T23:51:34.764Z,81.87
2018-06-09T23:54:03.723Z,56.17
2018-06-09T23:56:34.790Z,127.17
2018-06-09T23:59:04.892Z,74.20
